August 15, 2022

Time Code Weather Temp. Visibility Ceiling Wind METAR/SPECI
22:50
V
18 °C 10 km+ - Var Var 2 kt METAR EDDS 152050Z AUTO VRB02KT CAVOK 18/12 Q1010
22:20
V
19 °C 10 km+ - 220° 220° 3 kt METAR EDDS 152020Z AUTO 22003KT 160V270 CAVOK 19/11 Q1010 NOSIG
21:50
V
18 °C 10 km+ - 220° 220° 3 kt METAR EDDS 151950Z AUTO 22003KT 180V250 CAVOK 18/11 Q1010 NOSIG
21:20
V
19 °C 10 km+ - Var Var 2 kt METAR EDDS 151920Z AUTO VRB02KT CAVOK 19/11 Q1010 NOSIG
20:50
V
20 °C 10 km+ - 190° 190° 3 kt METAR EDDS 151850Z AUTO 19003KT 140V290 CAVOK 20/11 Q1009 NOSIG
20:20
V
21 °C 10 km+ - 210° 210° 4 kt METAR EDDS 151820Z AUTO 21004KT 140V310 CAVOK 21/11 Q1009 NOSIG
19:50
V
21 °C 10 km+ - 250° 250° 5 kt METAR EDDS 151750Z AUTO 25005KT CAVOK 21/11 Q1009 NOSIG
19:20
V
21 °C 10 km+ - Var Var 4 kt METAR EDDS 151720Z AUTO VRB04KT CAVOK 21/11 Q1008 NOSIG
18:50
V
22 °C 10 km+ - 140° 140° 3 kt METAR EDDS 151650Z AUTO 14003KT 070V230 CAVOK 22/13 Q1009 NOSIG
18:20
V
21 °C 10 km+ - 150° 150° 4 kt METAR EDDS 151620Z AUTO 15004KT 090V200 CAVOK 21/14 Q1008 RESHRA NOSIG
17:50
V
20 °C 10 km+ - 300° 300° 9 kt METAR EDDS 151550Z AUTO 30009KT 9999 SHRA FEW///CB 20/13 Q1008 RETS TEMPO 4000 TSRA
17:20
V
21 °C 10 km+ - 250° 250° 13 kt METAR EDDS 151520Z AUTO 25013KT 9999 +TSGRRA FEW017 SCT///CB 21/13 Q1008
16:50
V
23 °C 10 km+ - 290° 290° 18 - 32 kt METAR EDDS 151450Z AUTO 29018G32KT 9999 SHRA FEW///CB 23/13 Q1007 TEMPO 4000 TSRA
16:20
V
26 °C 10 km+ - 360° 360° 7 kt METAR EDDS 151420Z AUTO 36007KT 320V040 9999 VCSH FEW///TCU 26/12 Q1006 RESHRA TEMPO 30020G35KT 4000 TSRA
15:50
V
26 °C 10 km+ - 350° 350° 9 kt METAR EDDS 151350Z AUTO 35009KT 300V030 9999 -SHRA VCTS FEW///CB 26/12 Q1006 TEMPO 27015G30KT 4000 TSRA
15:20
V
27 °C 10 km+ - Var Var 4 kt METAR EDDS 151320Z AUTO VRB04KT 9999 -SHRA FEW///CB 27/12 Q1007 RESHRA TEMPO 27015G30KT 4000 TSRA
14:50
V
26 °C 10 km+ - 330° 330° 3 kt METAR EDDS 151250Z AUTO 33003KT CAVOK 26/11 Q1007 TEMPO SHRA BKN040CB
14:20
V
26 °C 10 km+ - 320° 320° 8 kt METAR EDDS 151220Z AUTO 32008KT 270V360 CAVOK 26/11 Q1007 TEMPO SHRA BKN040CB
13:50
V
27 °C 10 km+ - Var Var 4 kt METAR EDDS 151150Z AUTO VRB04KT CAVOK 27/10 Q1007 NOSIG
13:20
V
27 °C 10 km+ - 250° 250° 7 kt METAR EDDS 151120Z AUTO 25007KT 160V310 CAVOK 27/10 Q1007 NOSIG
12:50
V
27 °C 10 km+ - 240° 240° 8 kt METAR EDDS 151050Z AUTO 24008KT 160V310 CAVOK 27/10 Q1007 NOSIG
12:20
V
26 °C 10 km+ - 250° 250° 8 kt METAR EDDS 151020Z AUTO 25008KT 170V300 CAVOK 26/11 Q1008 NOSIG
11:50
V
25 °C 10 km+ - 250° 250° 10 kt METAR EDDS 150950Z AUTO 25010KT 180V290 9999 FEW048 25/11 Q1008 NOSIG
11:20
V
24 °C 10 km+ - 250° 250° 8 kt METAR EDDS 150920Z AUTO 25008KT 210V280 9999 FEW041 SCT047 24/12 Q1008
10:50
V
23 °C 10 km+ - 260° 260° 8 kt METAR EDDS 150850Z AUTO 26008KT 190V300 9999 FEW036 23/12 Q1008 NOSIG
10:20
V
22 °C 10 km+ - 250° 250° 9 kt METAR EDDS 150820Z AUTO 25009KT 200V280 9999 FEW030 SCT041 22/13 Q1008 NOSIG
09:50
V
21 °C 10 km+ - 250° 250° 9 kt METAR EDDS 150750Z AUTO 25009KT 200V290 9999 FEW029 21/13 Q1008 NOSIG
09:20
V
21 °C 10 km+ - 270° 270° 6 kt METAR EDDS 150720Z AUTO 27006KT 220V300 9999 FEW026 21/14 Q1008 NOSIG
08:50
V
19 °C 10 km+ - 250° 250° 6 kt METAR EDDS 150650Z AUTO 25006KT 220V280 CAVOK 19/14 Q1008 NOSIG
08:20
V
19 °C 10 km+ - 240° 240° 4 kt METAR EDDS 150620Z AUTO 24004KT 190V280 9999 -SHRA FEW///TCU 19/14 Q1007 RESHRA NOSIG
07:50
V
19 °C 10 km+ - 230° 230° 6 kt METAR EDDS 150550Z AUTO 23006KT 130V280 CAVOK 19/14 Q1008 NOSIG
07:20
V
19 °C 10 km+ - Var Var 5 kt METAR EDDS 150520Z AUTO VRB05KT 9999 -SHRA FEW///TCU 19/14 Q1008 TEMPO SHRA SCT040CB
06:50
V
19 °C 10 km+ - Var Var 4 kt METAR EDDS 150450Z AUTO VRB04KT 9999 -RA NSC 19/14 Q1008 TEMPO SHRA SCT045TCU
06:20
V
19 °C 10 km+ - Var Var 3 kt METAR EDDS 150420Z AUTO VRB03KT CAVOK 19/15 Q1008 TEMPO SHRA
05:50
V
20 °C 10 km+ - 220° 220° 4 kt METAR EDDS 150350Z AUTO 22004KT 170V290 9999 -SHRA FEW024 FEW///TCU 20/14 Q1008
05:20
V
20 °C 10 km+ - 230° 230° 3 kt METAR EDDS 150320Z AUTO 23003KT 160V260 9999 -SHRA FEW///TCU 20/14 Q1008
04:50
V
20 °C 10 km+ - Var Var 3 kt METAR EDDS 150250Z AUTO VRB03KT CAVOK 20/14 Q1007
04:20
V
20 °C 10 km+ - 260° 260° 5 kt METAR EDDS 150220Z AUTO 26005KT 210V290 CAVOK 20/14 Q1007
03:50
V
20 °C 10 km+ - 240° 240° 7 kt METAR EDDS 150150Z AUTO 24007KT 180V290 9999 -SHRA FEW///CB 20/14 Q1007
03:20
V
20 °C 10 km+ - Var Var 2 kt METAR EDDS 150120Z AUTO VRB02KT 9999 -SHRA FEW///CB 20/14 Q1007
02:50
V
21 °C 10 km+ - Var Var 2 kt METAR EDDS 150050Z AUTO VRB02KT 9999 -SHRA FEW034 FEW///TCU 21/13 Q1007
02:20
V
21 °C 10 km+ - 180° 180° 5 kt METAR EDDS 150020Z AUTO 18005KT 130V220 9999 -RA NSC 21/13 Q1007
01:50
V
22 °C 10 km+ - Var Var 2 kt METAR EDDS 142350Z AUTO VRB02KT 9999 -RA NSC 22/12 Q1007
01:20
V
23 °C 10 km+ - Var Var 2 kt METAR EDDS 142320Z AUTO VRB02KT CAVOK 23/11 Q1007
00:50
V
23 °C 10 km+ - Var Var 3 kt METAR EDDS 142250Z AUTO VRB03KT CAVOK 23/11 Q1007
00:20
V
23 °C 10 km+ - 200° 200° 3 kt METAR EDDS 142220Z AUTO 20003KT 130V290 CAVOK 23/11 Q1007

August 14, 2022

Time Code Weather Temp. Visibility Ceiling Wind METAR/SPECI
23:50
V
23 °C 10 km+ - Var Var 4 kt METAR EDDS 142150Z AUTO VRB04KT CAVOK 23/11 Q1007
23:20
V
24 °C 10 km+ - 250° 250° 3 kt METAR EDDS 142120Z AUTO 25003KT 210V300 CAVOK 24/11 Q1007
22:50
V
24 °C 10 km+ - Var Var 1 kt METAR EDDS 142050Z AUTO VRB01KT CAVOK 24/09 Q1007
22:20
V
25 °C 10 km+ - Var Var 2 kt METAR EDDS 142020Z AUTO VRB02KT CAVOK 25/09 Q1007
21:50
V
25 °C 10 km+ - 300° 300° 3 kt METAR EDDS 141950Z AUTO 30003KT CAVOK 25/08 Q1007 NOSIG
21:20
V
26 °C 10 km+ - 300° 300° 6 kt METAR EDDS 141920Z AUTO 30006KT CAVOK 26/08 Q1006 NOSIG
20:50
V
26 °C 10 km+ - 280° 280° 7 kt METAR EDDS 141850Z AUTO 28007KT CAVOK 26/07 Q1006 NOSIG
20:20
V
27 °C 10 km+ - 320° 320° 5 kt METAR EDDS 141820Z AUTO 32005KT 280V340 CAVOK 27/07 Q1006 NOSIG
19:50
V
27 °C 10 km+ - 050° 050° 2 kt METAR EDDS 141750Z AUTO 05002KT CAVOK 27/08 Q1006 NOSIG
19:20
V
28 °C 10 km+ - Var Var 2 kt METAR EDDS 141720Z AUTO VRB02KT CAVOK 28/10 Q1006 NOSIG
18:50
V
29 °C 10 km+ - 090° 090° 3 kt METAR EDDS 141650Z AUTO 09003KT 060V130 CAVOK 29/08 Q1006 NOSIG
18:20
V
30 °C 10 km+ - 090° 090° 3 kt METAR EDDS 141620Z AUTO 09003KT 060V160 CAVOK 30/07 Q1006 NOSIG
17:50
V
30 °C 10 km+ - Var Var 2 kt METAR EDDS 141550Z AUTO VRB02KT CAVOK 30/06 Q1006 NOSIG
17:20
V
30 °C 10 km+ - 080° 080° 3 kt METAR EDDS 141520Z AUTO 08003KT 020V120 CAVOK 30/05 Q1006 NOSIG
16:50
V
31 °C 10 km+ - Var Var 3 kt METAR EDDS 141450Z AUTO VRB03KT CAVOK 31/06 Q1007 NOSIG
16:20
V
31 °C 10 km+ - 120° 120° 5 kt METAR EDDS 141420Z AUTO 12005KT 080V180 CAVOK 31/05 Q1007
15:50
V
30 °C 10 km+ - Var Var 5 kt METAR EDDS 141350Z AUTO VRB05KT CAVOK 30/06 Q1007 NOSIG
15:20
V
30 °C 10 km+ - Var Var 4 kt METAR EDDS 141320Z AUTO VRB04KT CAVOK 30/07 Q1008 NOSIG
14:50
V
30 °C 10 km+ - Var Var 4 kt METAR EDDS 141250Z AUTO VRB04KT CAVOK 30/06 Q1008 NOSIG
14:20
V
29 °C 10 km+ - 070° 070° 8 kt METAR EDDS 141220Z AUTO 07008KT 020V120 CAVOK 29/07 Q1008 NOSIG
13:50
V
29 °C 10 km+ - 090° 090° 10 kt METAR EDDS 141150Z AUTO 09010KT 050V120 CAVOK 29/07 Q1009 NOSIG
13:20
V
30 °C 10 km+ - 090° 090° 11 kt METAR EDDS 141120Z AUTO 09011KT 020V140 CAVOK 30/09 Q1009 NOSIG
12:50
V
29 °C 10 km+ - 080° 080° 9 kt METAR EDDS 141050Z AUTO 08009KT 050V120 CAVOK 29/09 Q1009 NOSIG
12:20
V
28 °C 10 km+ - 080° 080° 11 kt METAR EDDS 141020Z AUTO 08011KT 050V130 CAVOK 28/09 Q1009 NOSIG
11:50
V
27 °C 10 km+ - Var Var 6 kt METAR EDDS 140950Z AUTO VRB06KT CAVOK 27/10 Q1010 NOSIG
11:20
V
25 °C 10 km+ - 090° 090° 8 kt METAR EDDS 140920Z AUTO 09008KT 060V120 CAVOK 25/10 Q1010 NOSIG
10:50
V
25 °C 10 km+ - 090° 090° 6 kt METAR EDDS 140850Z AUTO 09006KT 050V160 CAVOK 25/10 Q1010 NOSIG
10:20
V
23 °C 10 km+ - 070° 070° 5 kt METAR EDDS 140820Z AUTO 07005KT 040V120 CAVOK 23/10 Q1011 NOSIG
09:50
V
21 °C 10 km+ - 080° 080° 3 kt METAR EDDS 140750Z AUTO 08003KT 010V140 CAVOK 21/10 Q1011 NOSIG
09:20
V
20 °C 10 km+ - 080° 080° 3 kt METAR EDDS 140720Z AUTO 08003KT 030V110 CAVOK 20/11 Q1010 NOSIG
08:50
V
19 °C 10 km+ - Var Var 2 kt METAR EDDS 140650Z AUTO VRB02KT CAVOK 19/10 Q1011 NOSIG
08:20
V
18 °C 10 km+ - Var Var 1 kt METAR EDDS 140620Z AUTO VRB01KT CAVOK 18/11 Q1011 NOSIG
07:50
V
16 °C 10 km+ - Var Var 1 kt METAR EDDS 140550Z AUTO VRB01KT CAVOK 16/11 Q1011 NOSIG
07:20
V
16 °C 10 km+ - 160° 160° 1 kt METAR EDDS 140520Z AUTO 16001KT CAVOK 16/10 Q1011 NOSIG
06:50
V
14 °C 10 km+ - Var Var 1 kt METAR EDDS 140450Z AUTO VRB01KT CAVOK 14/09 Q1011 NOSIG
06:20
V
14 °C 10 km+ - Var Var 2 kt METAR EDDS 140420Z AUTO VRB02KT CAVOK 14/09 Q1011 NOSIG
05:50
V
13 °C 10 km+ - Var Var 2 kt METAR EDDS 140350Z AUTO VRB02KT CAVOK 13/09 Q1011
05:20
V
14 °C 10 km+ - Var Var 1 kt METAR EDDS 140320Z AUTO VRB01KT CAVOK 14/09 Q1012
04:50
V
14 °C 10 km+ - 310° 310° 3 kt METAR EDDS 140250Z AUTO 31003KT 280V350 CAVOK 14/09 Q1012
04:20
V
14 °C 10 km+ - Var Var 2 kt METAR EDDS 140220Z AUTO VRB02KT CAVOK 14/09 Q1012
03:50
V
14 °C 10 km+ - 320° 320° 4 kt METAR EDDS 140150Z AUTO 32004KT CAVOK 14/09 Q1013
03:20
V
15 °C 10 km+ - 320° 320° 3 kt METAR EDDS 140120Z AUTO 32003KT CAVOK 15/09 Q1013
02:50
V
15 °C 10 km+ - 280° 280° 2 kt METAR EDDS 140050Z AUTO 28002KT CAVOK 15/09 Q1013
02:20
V
15 °C 10 km+ - Var Var 1 kt METAR EDDS 140020Z AUTO VRB01KT CAVOK 15/10 Q1013
01:50
V
16 °C 10 km+ - Var Var 2 kt METAR EDDS 132350Z AUTO VRB02KT CAVOK 16/09 Q1014
01:20
V
16 °C 10 km+ - 300° 300° 2 kt METAR EDDS 132320Z AUTO 30002KT CAVOK 16/09 Q1014
00:50
V
16 °C 10 km+ - 250° 250° 1 kt METAR EDDS 132250Z AUTO 25001KT CAVOK 16/09 Q1014
00:20
V
17 °C 10 km+ - 260° 260° 1 kt METAR EDDS 132220Z AUTO 26001KT CAVOK 17/09 Q1014

August 13, 2022

Time Code Weather Temp. Visibility Ceiling Wind METAR/SPECI
23:50
V
19 °C 10 km+ - 280° 280° 3 kt METAR EDDS 132150Z AUTO 28003KT CAVOK 19/09 Q1014
23:20
V
19 °C 10 km+ - Var Var 1 kt METAR EDDS 132120Z AUTO VRB01KT CAVOK 19/09 Q1014
22:50
V
20 °C 10 km+ - Var Var 2 kt METAR EDDS 132050Z AUTO VRB02KT CAVOK 20/09 Q1014
22:20
V
21 °C 10 km+ - Var Var 2 kt METAR EDDS 132020Z AUTO VRB02KT CAVOK 21/08 Q1014
21:50
V
21 °C 10 km+ - Var Var 2 kt METAR EDDS 131950Z AUTO VRB02KT CAVOK 21/08 Q1014 NOSIG
21:20
V
22 °C 10 km+ - Var Var 1 kt METAR EDDS 131920Z AUTO VRB01KT CAVOK 22/08 Q1014 NOSIG
20:50
V
23 °C 10 km+ - Var Var 2 kt METAR EDDS 131850Z AUTO VRB02KT CAVOK 23/08 Q1014 NOSIG
20:20
V
26 °C 10 km+ - Var Var 2 kt METAR EDDS 131820Z AUTO VRB02KT CAVOK 26/08 Q1014 NOSIG
19:50
V
27 °C 10 km+ - Var Var 2 kt METAR EDDS 131750Z AUTO VRB02KT CAVOK 27/08 Q1014 NOSIG
19:20
V
27 °C 10 km+ - 110° 110° 3 kt METAR EDDS 131720Z AUTO 11003KT 060V190 CAVOK 27/08 Q1014 NOSIG
18:50
V
28 °C 10 km+ - 070° 070° 5 kt METAR EDDS 131650Z AUTO 07005KT 030V190 CAVOK 28/07 Q1014 NOSIG
18:20
V
28 °C 10 km+ - 080° 080° 6 kt METAR EDDS 131620Z AUTO 08006KT CAVOK 28/07 Q1014 NOSIG
17:50
V
28 °C 10 km+ - 090° 090° 4 kt METAR EDDS 131550Z AUTO 09004KT 030V140 CAVOK 28/07 Q1015 NOSIG
17:20
V
28 °C 10 km+ - 130° 130° 5 kt METAR EDDS 131520Z AUTO 13005KT 080V200 CAVOK 28/07 Q1015 NOSIG
16:50
V
28 °C 10 km+ - 070° 070° 6 kt METAR EDDS 131450Z AUTO 07006KT 030V120 CAVOK 28/07 Q1015 NOSIG
Older data

We and third parties follow your internet behavior on our website with cookies. If you continue, we assume you agree with our cookie policy. Learn more